Time;durP1;ratioP1;P1;durP2;ratioP2;P2;SDS_P1;SDS_P2;PMS_P1;PMS_P2;Temp;Humidity;BMP_temperature;BMP_pressure;BME280_temperature;BME280_humidity;BME280_pressure;Samples;Min_cycle;Max_cycle;Signal;HPM_P1;HPM_P2
2022/08/04 00:00:12;;;;;;;2.67;2.03;;;22.10;98.60;;;21.55;100.00;97328.41;4940097;28;20052;-63
2022/08/04 00:03:18;;;;;;;2.90;1.70;;;22.10;98.40;;;21.89;100.00;97325.31;4941299;28;20057;-64
2022/08/04 00:06:23;;;;;;;4.80;2.13;;;22.10;98.70;;;21.69;100.00;97327.13;4952636;28;20047;-64
2022/08/04 00:09:16;;;;;;;3.35;2.05;;;22.10;99.20;;;21.61;100.00;97319.94;4938605;28;20140;-62
2022/08/04 00:11:45;;;;;;;4.38;2.58;;;22.00;99.10;;;21.15;100.00;97320.63;4955990;28;20519;-63
2022/08/04 00:14:15;;;;;;;4.38;2.75;;;21.90;99.30;;;21.10;100.00;97319.22;4954453;28;20090;-63
2022/08/04 00:16:45;;;;;;;3.70;2.53;;;21.80;99.50;;;20.92;100.00;97323.50;4939196;28;20968;-63
2022/08/04 00:19:23;;;;;;;3.25;2.25;;;21.80;99.90;;;20.86;100.00;97314.31;4956396;28;20048;-64
2022/08/04 00:21:57;;;;;;;7.03;2.42;;;21.60;99.90;;;20.90;100.00;97320.16;4943445;28;20057;-63
2022/08/04 00:24:25;;;;;;;2.95;1.85;;;21.60;99.90;;;20.79;100.00;97322.91;4954136;28;20099;-62
2022/08/04 00:26:53;;;;;;;4.50;2.10;;;21.50;99.90;;;20.85;100.00;97323.22;4941031;28;20123;-62
2022/08/04 00:29:22;;;;;;;4.38;2.35;;;21.40;99.90;;;20.86;100.00;97322.22;4941430;28;20090;-63
2022/08/04 00:31:49;;;;;;;7.80;1.90;;;21.40;99.90;;;21.14;100.00;97318.94;4943539;28;20047;-64
2022/08/04 00:34:26;;;;;;;4.80;2.10;;;21.40;99.90;;;20.88;100.00;97330.00;4941740;28;20483;-64
2022/08/04 00:36:55;;;;;;;6.00;2.70;;;21.40;99.90;;;20.87;100.00;97328.34;4941875;28;20086;-64
2022/08/04 00:39:23;;;;;;;3.67;2.45;;;21.40;99.90;;;20.96;100.00;97321.41;4941683;28;20182;-64
2022/08/04 00:42:17;;;;;;;3.75;2.30;;;21.30;99.90;;;20.94;100.00;97326.84;4941914;28;20908;-64
2022/08/04 00:45:29;;;;;;;3.35;2.30;;;21.30;99.90;;;20.75;100.00;97326.78;4939688;28;20513;-64
2022/08/04 00:48:50;;;;;;;3.67;2.30;;;21.40;99.90;;;20.70;100.00;97326.34;4938376;28;20065;-64
2022/08/04 00:51:40;;;;;;;3.35;1.60;;;21.30;99.90;;;20.57;100.00;97322.16;4953091;28;20591;-64
2022/08/04 00:54:50;;;;;;;2.97;1.88;;;21.20;99.90;;;20.53;100.00;97327.81;4938749;28;20078;-64
2022/08/04 00:57:52;;;;;;;6.05;1.88;;;21.10;99.90;;;20.58;100.00;97333.53;4941244;28;20496;-64
2022/08/04 01:00:20;;;;;;;4.85;2.45;;;21.10;99.90;;;20.60;100.00;97324.53;4940394;28;20138;-64
2022/08/04 01:02:50;;;;;;;4.65;2.20;;;21.00;99.90;;;20.57;100.00;97332.72;4955409;28;20146;-63
2022/08/04 01:05:27;;;;;;;3.95;2.03;;;21.00;99.90;;;20.57;100.00;97326.59;4937315;28;20063;-64
2022/08/04 01:08:51;;;;;;;5.32;2.00;;;21.00;99.90;;;20.50;100.00;97328.06;4937932;28;20048;-62
2022/08/04 01:11:42;;;;;;;5.65;2.42;;;21.00;99.90;;;20.30;100.00;97337.69;4956353;28;20093;-62
2022/08/04 01:15:06;;;;;;;3.78;2.22;;;20.80;99.90;;;20.17;100.00;97337.94;4956094;28;20129;-62
2022/08/04 01:18:00;;;;;;;5.90;2.17;;;20.60;99.90;;;20.06;100.00;97341.47;4941540;28;21465;-63
2022/08/04 01:20:41;;;;;;;3.28;2.03;;;20.50;99.90;;;20.08;100.00;97334.28;4943930;28;20134;-63
2022/08/04 01:23:40;;;;;;;3.15;2.33;;;20.50;99.90;;;19.93;100.00;97336.38;4955646;28;20069;-63
2022/08/04 01:26:44;;;;;;;5.05;2.00;;;20.50;99.90;;;19.91;100.00;97340.97;4943665;29;20137;-63
2022/08/04 01:29:27;;;;;;;3.03;1.90;;;20.50;99.90;;;19.97;100.00;97334.34;4941666;28;20052;-63
2022/08/04 01:32:23;;;;;;;4.78;2.00;;;20.50;99.90;;;19.94;100.00;97332.81;4953458;28;20552;-63
2022/08/04 01:35:00;;;;;;;3.95;1.65;;;20.50;99.90;;;20.03;100.00;97332.03;4958143;28;20047;-63
2022/08/04 01:37:57;;;;;;;2.45;1.52;;;20.40;99.90;;;20.03;100.00;97334.66;4939383;28;20210;-62
2022/08/04 01:40:27;;;;;;;4.28;1.95;;;20.40;99.90;;;19.96;100.00;97332.69;4944288;28;20051;-62
2022/08/04 01:42:57;;;;;;;3.22;1.60;;;20.40;99.90;;;19.85;100.00;97338.84;4940821;28;20354;-65
2022/08/04 01:45:24;;;;;;;3.15;1.80;;;20.40;99.90;;;19.83;100.00;97336.34;4958638;28;20704;-63
2022/08/04 01:47:55;;;;;;;4.03;1.70;;;20.30;99.90;;;19.85;100.00;97334.41;4943097;28;20142;-62
2022/08/04 01:50:26;;;;;;;2.53;1.40;;;20.30;99.90;;;19.86;100.00;97329.97;4942993;28;20139;-62
2022/08/04 01:52:55;;;;;;;3.42;1.55;;;20.30;99.90;;;19.85;100.00;97328.31;4939183;28;20043;-63
2022/08/04 01:55:24;;;;;;;3.45;1.50;;;20.30;99.90;;;19.74;100.00;97333.66;4941624;28;20055;-62
2022/08/04 01:58:13;;;;;;;2.10;1.48;;;20.30;99.90;;;19.76;100.00;97331.72;4952427;28;20050;-62
2022/08/04 02:00:55;;;;;;;2.72;1.33;;;20.30;99.90;;;19.74;100.00;97338.91;4957010;28;20079;-63
2022/08/04 02:03:22;;;;;;;4.28;1.50;;;20.30;99.90;;;19.83;100.00;97341.59;4940313;28;20055;-63
2022/08/04 02:06:57;;;;;;;4.60;1.48;;;20.20;99.90;;;19.97;100.00;97329.06;4942895;29;20085;-63
2022/08/04 02:09:40;;;;;;;2.33;1.35;;;20.30;99.90;;;19.87;100.00;97330.84;4942932;28;20147;-61
2022/08/04 02:12:43;;;;;;;2.67;1.27;;;20.40;99.90;;;19.75;100.00;97328.25;4954615;28;20062;-63
2022/08/04 02:15:32;;;;;;;3.15;1.02;;;20.40;99.90;;;19.85;100.00;97330.94;4956420;28;20484;-62
2022/08/04 02:18:24;;;;;;;2.85;1.30;;;20.40;99.90;;;19.77;100.00;97326.31;4941892;28;20134;-63
2022/08/04 02:21:00;;;;;;;1.77;1.38;;;20.40;99.90;;;19.85;100.00;97323.06;4960633;28;20385;-62
2022/08/04 02:23:40;;;;;;;3.83;1.33;;;20.30;99.90;;;19.95;100.00;97318.66;4955753;28;20512;-62
2022/08/04 02:26:19;;;;;;;2.20;1.40;;;20.30;99.90;;;19.91;100.00;97316.41;4944455;29;20518;-63
2022/08/04 02:29:26;;;;;;;4.75;1.42;;;20.30;99.90;;;19.97;100.00;97308.00;4938967;29;20051;-63
2022/08/04 02:32:06;;;;;;;1.98;1.23;;;20.30;99.90;;;20.03;100.00;97304.84;4943157;28;20060;-62
2022/08/04 02:35:20;;;;;;;2.38;1.42;;;20.30;99.90;;;19.89;100.00;97313.06;4915623;28;1219020;-63
2022/08/04 02:38:02;;;;;;;3.38;1.30;;;20.30;99.90;;;19.98;100.00;97310.50;4885727;29;20051;-62
2022/08/04 02:40:30;;;;;;;2.28;1.50;;;20.30;99.90;;;19.87;100.00;97312.41;4936727;28;20135;-63
2022/08/04 02:42:58;;;;;;;2.60;1.48;;;20.20;99.90;;;19.88;100.00;97312.25;4942876;28;20047;-63
2022/08/04 02:45:27;;;;;;;2.53;1.45;;;20.20;99.90;;;20.01;100.00;97309.41;4954321;28;20688;-63
2022/08/04 02:47:57;;;;;;;3.55;1.50;;;20.20;99.90;;;20.05;100.00;97306.38;4940664;28;20138;-62
2022/08/04 02:50:45;;;;;;;2.33;1.70;;;20.20;99.90;;;19.92;100.00;97308.41;4953168;28;20052;-62
2022/08/04 02:53:17;;;;;;;3.20;1.70;;;20.30;99.90;;;19.82;100.00;97313.63;4940856;28;20062;-61
2022/08/04 02:55:45;;;;;;;3.10;1.80;;;20.30;99.90;;;19.48;100.00;97312.09;4941842;28;20043;-61
2022/08/04 02:58:24;;;;;;;3.50;1.95;;;20.20;99.90;;;19.26;100.00;97324.38;4953266;28;20073;-63
2022/08/04 03:00:51;;;;;;;3.22;2.15;;;20.00;99.90;;;19.23;100.00;97319.38;4940359;28;20054;-63
2022/08/04 03:03:40;;;;;;;2.25;1.52;;;20.00;99.90;;;19.14;100.00;97326.22;4939456;28;20051;-63
2022/08/04 03:06:10;;;;;;;3.53;2.17;;;19.90;99.90;;;19.10;100.00;97322.19;4958859;28;20126;-61
2022/08/04 03:09:08;;;;;;;4.13;2.22;;;19.80;99.90;;;18.98;100.00;97326.63;4938559;28;20086;-63
2022/08/04 03:11:53;;;;;;;5.07;1.90;;;19.80;99.90;;;19.24;100.00;97318.41;4955927;28;20138;-63
2022/08/04 03:14:57;;;;;;;2.75;1.88;;;19.70;99.90;;;19.39;100.00;97316.34;4939747;28;20420;-62
2022/08/04 03:17:51;;;;;;;3.05;2.10;;;19.70;99.90;;;19.24;100.00;97321.03;4937755;28;20055;-63
2022/08/04 03:20:42;;;;;;;3.70;1.85;;;19.80;99.90;;;19.37;100.00;97316.44;4940185;28;20500;-62
2022/08/04 03:23:47;;;;;;;4.25;2.00;;;19.80;99.90;;;19.31;100.00;97319.56;4953324;28;20584;-63
2022/08/04 03:26:44;;;;;;;3.97;2.05;;;19.80;99.90;;;19.41;100.00;97312.59;4940718;29;20052;-62
2022/08/04 03:29:39;;;;;;;3.15;2.30;;;19.90;99.90;;;19.03;100.00;97328.91;4953842;28;20140;-62
2022/08/04 03:32:43;;;;;;;2.83;2.17;;;19.70;99.90;;;18.90;100.00;97330.84;4938880;28;20050;-63
2022/08/04 03:35:51;;;;;;;3.88;2.25;;;19.70;99.90;;;18.87;100.00;97334.56;4938152;28;20055;-63
2022/08/04 03:38:33;;;;;;;3.38;2.40;;;19.60;99.90;;;18.66;100.00;97341.50;4954492;28;20058;-63
2022/08/04 03:41:34;;;;;;;4.23;2.40;;;19.60;99.90;;;18.92;100.00;97339.44;4942597;29;20485;-63
2022/08/04 03:44:55;;;;;;;3.92;3.10;;;19.40;99.90;;;18.64;100.00;97353.94;4940691;28;20310;-62
2022/08/04 03:48:04;;;;;;;3.40;2.42;;;19.50;99.90;;;18.56;100.00;97346.63;4939278;28;20065;-62
2022/08/04 03:53:07;;;;;;;4.80;2.35;;;19.40;99.90;;;18.76;100.00;97335.38;4939728;28;20477;-61
2022/08/04 03:55:01;;;;;;;3.20;2.22;;;19.30;99.90;;;18.98;100.00;97336.34;4942458;28;20047;-63
2022/08/04 03:57:47;;;;;;;2.72;1.90;;;19.30;99.90;;;19.06;100.00;97338.34;4940884;28;20078;-63
2022/08/04 04:00:18;;;;;;;2.83;2.13;;;19.40;99.90;;;19.02;100.00;97335.97;4939941;28;20429;-62
2022/08/04 04:03:25;;;;;;;3.97;2.30;;;19.40;99.90;;;18.99;100.00;97338.00;4956625;28;20476;-62
2022/08/04 04:06:10;;;;;;;3.45;2.50;;;19.40;99.90;;;18.72;100.00;97336.56;4939462;28;20110;-62
2022/08/04 04:09:22;;;;;;;3.33;2.33;;;19.40;99.90;;;18.74;100.00;97339.09;4942000;28;20130;-62
2022/08/04 04:12:25;;;;;;;4.93;2.20;;;19.40;99.90;;;18.85;100.00;97352.25;4944338;28;20051;-61
2022/08/04 04:15:24;;;;;;;3.97;2.03;;;19.30;99.90;;;19.00;100.00;97339.69;4941048;28;20800;-63
2022/08/04 04:18:31;;;;;;;3.28;1.98;;;19.40;99.90;;;19.20;100.00;97344.16;4956441;28;20055;-63
2022/08/04 04:21:28;;;;;;;3.85;1.90;;;19.40;99.90;;;19.19;100.00;97328.50;4937830;28;20051;-62
2022/08/04 04:24:33;;;;;;;4.90;2.15;;;19.50;99.90;;;18.83;100.00;97325.25;4958899;28;20122;-62
2022/08/04 04:27:17;;;;;;;2.63;1.85;;;19.50;99.90;;;18.72;100.00;97335.75;4957871;28;20173;-63
2022/08/04 04:30:08;;;;;;;2.85;1.90;;;19.40;99.90;;;18.75;100.00;97348.66;4953197;28;20078;-63
2022/08/04 04:32:56;;;;;;;3.00;2.22;;;19.30;99.90;;;19.10;100.00;97340.59;4955607;28;20450;-62
2022/08/04 04:36:00;;;;;;;2.72;1.92;;;19.40;99.90;;;19.18;100.00;97338.19;4954182;28;20051;-61
2022/08/04 04:38:56;;;;;;;3.03;1.95;;;19.40;99.90;;;19.02;100.00;97343.00;4940152;28;20048;-63
2022/08/04 04:42:13;;;;;;;2.97;1.80;;;19.30;99.90;;;18.75;100.00;97344.22;4950817;28;20060;-63
2022/08/04 04:44:42;;;;;;;2.80;2.13;;;19.30;99.90;;;18.92;100.00;97345.53;4952686;28;20046;-63
2022/08/04 04:47:54;;;;;;;3.60;1.98;;;19.30;99.90;;;18.70;100.00;97359.53;4938593;28;20908;-63
2022/08/04 04:51:09;;;;;;;2.90;2.17;;;19.50;99.90;;;18.60;100.00;97363.84;4942595;28;20761;-63
2022/08/04 04:54:07;;;;;;;2.53;1.88;;;19.50;99.90;;;18.96;100.00;97354.84;4939833;28;20679;-62
2022/08/04 04:56:49;;;;;;;3.15;1.77;;;19.40;99.90;;;18.85;100.00;97360.13;4939064;28;20086;-63
2022/08/04 04:59:21;;;;;;;4.07;1.98;;;19.50;99.90;;;18.88;100.00;97357.25;4936546;28;20055;-63
2022/08/04 05:02:19;;;;;;;3.08;2.05;;;19.50;99.90;;;18.87;100.00;97360.84;4941043;28;20050;-63
2022/08/04 05:05:25;;;;;;;4.75;2.15;;;19.50;99.90;;;19.04;100.00;97366.56;4939851;28;20142;-63
2022/08/04 05:08:32;;;;;;;2.90;1.90;;;19.60;99.90;;;19.29;100.00;97357.50;4936315;28;20051;-62
2022/08/04 05:11:21;;;;;;;2.33;1.77;;;19.60;99.90;;;19.28;100.00;97366.38;4940750;29;20138;-62
2022/08/04 05:13:53;;;;;;;3.53;2.28;;;19.70;99.90;;;19.40;100.00;97368.00;4938599;28;20078;-63
2022/08/04 05:16:55;;;;;;;3.00;1.88;;;19.90;99.90;;;19.60;100.00;97353.19;4939892;28;20446;-63
2022/08/04 05:19:32;;;;;;;;;;;20.00;99.90;;;19.83;100.00;97360.03;4954582;28;20472;-63
2022/08/04 05:22:09;;;;;;;4.68;2.08;;;20.20;99.90;;;19.73;100.00;97363.56;4935138;28;20383;-62
2022/08/04 05:24:45;;;;;;;4.38;2.40;;;20.20;99.90;;;19.72;100.00;97370.63;4938030;28;20477;-62
2022/08/04 05:27:20;;;;;;;4.97;2.17;;;20.30;99.90;;;20.01;100.00;97368.19;4939919;28;20486;-62
2022/08/04 05:29:56;;;;;;;2.65;1.80;;;20.40;99.90;;;20.31;100.00;97363.94;4934494;28;20036;-62
2022/08/04 05:32:29;;;;;;;4.35;1.70;;;20.60;99.90;;;20.29;100.00;97363.22;4954184;28;20366;-63
2022/08/04 05:35:05;;;;;;;2.88;1.90;;;20.80;99.90;;;20.43;100.00;97359.41;4953318;28;20132;-63
2022/08/04 05:37:37;;;;;;;3.42;1.42;;;21.00;99.90;;;20.55;100.00;97360.13;4938559;28;20043;-63
2022/08/04 05:40:07;;;;;;;4.27;1.40;;;21.20;99.90;;;20.63;100.00;97361.16;4954353;28;20198;-63
2022/08/04 05:42:38;;;;;;;2.63;1.50;;;21.30;99.90;;;21.05;100.00;97357.53;4953154;28;20061;-64
2022/08/04 05:45:08;;;;;;;3.67;1.90;;;21.50;99.90;;;21.35;100.00;97345.19;4936901;28;20043;-64
2022/08/04 05:47:36;;;;;;;3.40;1.90;;;21.70;99.90;;;21.28;100.00;97340.47;4953495;28;20506;-63
2022/08/04 05:50:06;;;;;;;4.85;1.90;;;21.90;99.90;;;21.49;100.00;97337.72;4942439;28;20051;-64
2022/08/04 05:52:36;;;;;;;3.40;1.88;;;22.10;99.90;;;21.77;100.00;97343.13;4955660;28;20061;-63
2022/08/04 05:55:04;;;;;;;2.90;1.67;;;22.20;99.90;;;21.85;100.00;97345.91;4940136;28;20052;-64
2022/08/04 05:57:32;;;;;;;3.25;2.20;;;22.30;99.90;;;22.00;100.00;97341.00;4956813;28;20055;-63
2022/08/04 06:00:04;;;;;;;2.60;1.65;;;22.50;99.90;;;22.26;100.00;97333.31;4956756;28;20078;-64
2022/08/04 06:02:52;;;;;;;2.97;1.83;;;22.70;99.90;;;21.98;100.00;97336.84;4944102;28;20055;-63
2022/08/04 06:05:20;;;;;;;6.68;1.80;;;22.90;99.90;;;22.17;100.00;97335.94;4942187;29;20190;-63
2022/08/04 06:07:48;;;;;;;5.18;2.10;;;22.90;99.90;;;22.26;100.00;97337.75;4944660;28;20078;-63
2022/08/04 06:10:38;;;;;;;3.15;1.70;;;23.00;99.90;;;22.65;100.00;97334.94;4944216;28;20139;-63
2022/08/04 06:13:11;;;;;;;4.18;2.00;;;23.20;99.90;;;22.91;100.00;97332.44;4958161;28;20422;-64
2022/08/04 06:16:00;;;;;;;2.28;1.50;;;23.40;99.90;;;23.15;100.00;97323.97;4942721;28;20412;-63
2022/08/04 06:18:29;;;;;;;2.95;1.50;;;23.70;99.90;;;23.21;100.00;97326.00;4958452;28;20050;-63
2022/08/04 06:21:20;;;;;;;3.25;1.30;;;23.90;99.90;;;23.31;100.00;97324.13;4936354;28;20060;-62
2022/08/04 06:23:49;;;;;;;3.45;1.35;;;24.00;99.90;;;23.49;100.00;97329.41;4946461;28;20051;-63
2022/08/04 06:26:32;;;;;;;3.28;1.23;;;24.10;99.90;;;23.58;100.00;97325.00;4957356;28;20109;-63
2022/08/04 06:29:01;;;;;;;4.60;1.40;;;24.20;99.90;;;23.49;100.00;97326.75;4961695;28;20126;-63
2022/08/04 06:31:42;;;;;;;2.33;1.40;;;24.40;99.90;;;23.40;100.00;97327.69;4942867;28;20436;-62
2022/08/04 06:34:31;;;;;;;5.05;1.70;;;24.40;99.90;;;23.64;100.00;97328.84;4951109;28;20052;-62
2022/08/04 06:36:59;;;;;;;4.50;1.73;;;24.50;99.90;;;23.85;100.00;97326.72;4942479;28;20046;-62
2022/08/04 06:39:28;;;;;;;4.97;1.33;;;24.60;99.90;;;24.21;100.00;97321.31;4952387;28;20051;-63
2022/08/04 06:41:56;;;;;;;4.40;1.50;;;24.80;99.90;;;24.31;100.00;97316.72;4952937;28;20099;-63
2022/08/04 06:44:48;;;;;;;3.15;1.40;;;25.00;99.90;;;24.71;100.00;97307.31;4941869;29;20048;-63
2022/08/04 06:47:18;;;;;;;3.50;1.15;;;25.30;99.90;;;24.83;100.00;97310.50;4952827;28;20551;-63
2022/08/04 06:49:48;;;;;;;1.75;1.02;;;25.50;99.90;;;25.19;100.00;97303.13;4942802;28;20061;-63
2022/08/04 06:52:37;;;;;;;2.95;1.27;;;25.70;99.90;;;25.41;100.00;97306.97;4953651;28;20062;-63
2022/08/04 06:55:06;;;;;;;2.00;1.33;;;26.00;99.90;;;25.49;100.00;97306.16;4956826;28;20299;-63
2022/08/04 06:57:35;;;;;;;6.97;1.45;;;26.20;99.90;;;25.69;100.00;97309.31;4941913;29;20775;-62
2022/08/04 07:00:12;;;;;;;4.03;1.20;;;26.40;99.90;;;25.83;100.00;97308.63;4955984;28;20078;-63
2022/08/04 07:02:50;;;;;;;3.60;1.23;;;26.60;99.90;;;26.07;100.00;97306.97;4953602;28;20131;-63
2022/08/04 07:05:19;;;;;;;2.35;1.02;;;26.80;99.90;;;26.29;100.00;97303.56;4944991;28;20050;-63
2022/08/04 07:07:46;;;;;;;3.88;1.10;;;27.00;99.90;;;26.30;100.00;97309.72;4940885;29;20138;-64
2022/08/04 07:10:28;;;;;;;1.67;1.10;;;27.10;99.90;;;26.47;100.00;97310.50;4937407;28;20059;-63
2022/08/04 07:13:00;;;;;;;2.83;1.17;;;27.20;99.90;;;26.69;100.00;97312.44;4954111;28;20139;-64
2022/08/04 07:15:28;;;;;;;5.32;1.77;;;27.40;99.90;;;26.87;100.00;97304.19;4955940;28;20059;-63
2022/08/04 07:17:58;;;;;;;1.73;1.00;;;27.50;99.90;;;27.19;100.00;97305.00;4953393;28;20146;-64
2022/08/04 07:20:28;;;;;;;1.80;0.98;;;27.70;99.90;;;27.35;100.00;97297.91;4955558;28;20051;-64
2022/08/04 07:23:06;;;;;;;2.03;1.05;;;28.00;99.80;;;27.47;100.00;97293.81;4939326;28;20058;-63
2022/08/04 07:25:34;;;;;;;2.88;1.00;;;28.20;98.60;;;27.60;100.00;97296.72;4939893;28;20055;-63
2022/08/04 07:28:27;;;;;;;1.45;0.82;;;28.40;98.80;;;27.90;100.00;97296.81;4937915;28;20055;-62
2022/08/04 07:30:57;;;;;;;3.22;0.95;;;28.60;98.00;;;28.09;100.00;97292.78;4938439;28;20112;-64
2022/08/04 07:33:24;;;;;;;2.15;0.88;;;28.80;97.80;;;28.37;100.00;97295.63;4938552;28;20062;-64
2022/08/04 07:35:55;;;;;;;4.85;1.08;;;29.10;97.20;;;28.54;100.00;97296.28;4936963;28;20470;-62
2022/08/04 07:38:42;;;;;;;1.63;0.70;;;29.20;96.90;;;28.77;100.00;97288.16;4938068;28;20055;-62
2022/08/04 07:41:22;;;;;;;3.22;1.10;;;29.40;96.70;;;28.51;100.00;97288.63;4951100;28;20068;-64
2022/08/04 07:44:06;;;;;;;2.53;0.88;;;29.50;94.80;;;28.57;100.00;97291.41;4952681;28;20071;-64
2022/08/04 07:46:37;;;;;;;4.55;1.08;;;29.50;95.00;;;28.48;100.00;97289.84;4938932;29;20578;-64
2022/08/04 07:49:05;;;;;;;2.70;0.80;;;29.50;94.50;;;28.55;100.00;97295.28;4938805;28;20191;-64
2022/08/04 07:51:35;;;;;;;2.22;0.90;;;29.50;94.40;;;28.62;100.00;97300.69;4940360;29;20087;-64
2022/08/04 07:54:04;;;;;;;4.13;0.90;;;29.50;94.00;;;28.94;100.00;97291.41;4941476;28;20061;-64
2022/08/04 07:56:38;;;;;;;2.42;1.00;;;29.70;94.10;;;29.12;100.00;97293.69;4951144;28;20051;-64
2022/08/04 07:59:05;;;;;;;2.58;0.80;;;29.80;94.30;;;29.10;100.00;97291.22;4938142;28;20052;-65
2022/08/04 08:01:36;;;;;;;2.83;0.98;;;29.90;93.50;;;29.06;100.00;97297.09;4952050;28;20053;-64
2022/08/04 08:04:09;;;;;;;1.13;0.70;;;30.00;93.50;;;29.64;100.00;97297.06;4940539;28;20058;-64
2022/08/04 08:06:39;;;;;;;2.05;0.82;;;30.10;93.80;;;29.18;100.00;97301.78;4950834;28;20097;-64
2022/08/04 08:09:16;;;;;;;2.67;0.93;;;30.20;92.70;;;29.34;100.00;97299.88;4937083;28;20618;-63
2022/08/04 08:11:51;;;;;;;2.30;0.90;;;30.20;92.80;;;29.31;100.00;97294.91;4955955;28;20051;-64
2022/08/04 08:14:39;;;;;;;3.75;1.00;;;30.20;92.40;;;29.17;100.00;97300.16;4938991;28;20087;-64
2022/08/04 08:17:06;;;;;;;3.05;0.90;;;30.20;92.40;;;29.47;100.00;97293.81;4939393;28;20048;-62
2022/08/04 08:19:34;;;;;;;1.48;0.90;;;30.20;92.30;;;29.30;100.00;97295.94;4954239;28;20159;-63
2022/08/04 08:22:02;;;;;;;3.75;0.90;;;30.30;91.80;;;29.74;100.00;97302.94;4939049;28;20672;-64
2022/08/04 08:24:34;;;;;;;3.00;1.00;;;30.30;92.60;;;29.70;100.00;97293.66;4955213;28;20047;-63
2022/08/04 08:27:05;;;;;;;2.95;1.00;;;30.50;91.80;;;29.95;100.00;97300.22;4941001;28;20485;-64
2022/08/04 08:29:34;;;;;;;2.80;1.00;;;30.60;91.90;;;30.16;100.00;97296.66;4940444;28;20577;-64
2022/08/04 08:32:03;;;;;;;2.00;0.82;;;30.80;91.60;;;30.37;100.00;97295.78;4949591;28;20166;-63
2022/08/04 08:34:35;;;;;;;1.98;0.90;;;31.00;91.10;;;30.11;100.00;97303.63;4952083;28;20065;-62
2022/08/04 08:37:34;;;;;;;4.18;1.08;;;31.00;91.20;;;30.67;100.00;97294.69;4950709;28;20057;-63
2022/08/04 08:40:20;;;;;;;3.25;1.00;;;;;;;30.32;100.00;97292.88;4952261;28;20067;-64
2022/08/04 08:43:56;;;;;;;2.20;0.90;;;31.40;90.60;;;30.50;100.00;97300.38;4942003;28;20060;-65
2022/08/04 08:47:08;;;;;;;5.25;1.10;;;31.50;90.50;;;30.85;100.00;97298.47;4930907;28;20051;-63
2022/08/04 08:50:17;;;;;;;2.35;0.90;;;31.80;90.00;;;31.41;100.00;97292.06;4956391;28;20057;-64
2022/08/04 08:53:19;;;;;;;1.70;0.80;;;32.10;89.50;;;32.00;100.00;97294.94;4952005;28;20544;-64
2022/08/04 08:56:11;;;;;;;1.30;0.88;;;32.40;89.60;;;32.71;100.00;97295.00;4940441;28;20153;-64
2022/08/04 08:59:23;;;;;;;2.60;1.00;;;33.00;88.40;;;33.03;100.00;97291.56;4943318;28;20079;-64
2022/08/04 09:02:27;;;;;;;1.95;0.80;;;33.40;88.20;;;33.19;100.00;97290.25;4938162;28;20086;-64
2022/08/04 09:05:53;;;;;;;4.18;1.15;;;33.50;85.80;;;33.17;100.00;97295.84;4946477;28;20053;-64
2022/08/04 09:08:37;;;;;;;3.40;0.98;;;33.90;84.90;;;33.04;100.00;97295.88;4942406;28;20213;-64
2022/08/04 09:11:29;;;;;;;1.80;0.70;;;34.00;84.20;;;33.04;100.00;97294.00;4936625;28;20047;-64
2022/08/04 09:14:04;;;;;;;3.90;0.82;;;34.00;83.30;;;33.86;100.00;97291.41;4954636;28;20050;-64
2022/08/04 09:16:49;;;;;;;0.95;0.60;;;34.10;83.90;;;34.42;100.00;97292.34;4939145;28;20047;-64
2022/08/04 09:19:38;;;;;;;1.45;0.70;;;34.30;84.10;;;33.98;100.00;97299.56;4953486;28;20043;-65
2022/08/04 09:22:13;;;;;;;1.90;0.80;;;34.40;82.30;;;34.36;100.00;97299.44;4936408;28;20052;-63
2022/08/04 09:25:03;;;;;;;1.23;0.60;;;34.30;82.70;;;35.15;100.00;97299.56;4951473;28;20477;-65
2022/08/04 09:27:46;;;;;;;2.70;0.65;;;34.50;82.30;;;34.18;97.19;97302.09;4955965;28;20078;-64
2022/08/04 09:30:19;;;;;;;1.55;0.70;;;34.70;80.40;;;34.80;97.02;97295.84;4953867;28;20142;-65
2022/08/04 09:33:26;;;;;;;1.48;0.73;;;34.80;80.10;;;35.47;95.52;97296.59;4960924;28;20053;-64
2022/08/04 09:37:01;;;;;;;1.10;0.63;;;34.80;80.00;;;35.72;93.39;97292.88;4940718;28;20117;-63
2022/08/04 09:40:18;;;;;;;1.90;0.70;;;35.20;79.60;;;37.36;89.61;97289.09;4926518;29;20050;-64
2022/08/04 09:43:34;;;;;;;1.52;0.60;;;35.50;80.00;;;36.94;81.51;97294.78;4944258;28;20047;-64
2022/08/04 09:46:50;;;;;;;2.83;0.70;;;36.20;78.10;;;36.68;82.42;97293.47;4943477;28;20051;-64
2022/08/04 09:49:25;;;;;;;2.28;0.70;;;36.20;75.30;;;36.54;82.36;97303.69;4944040;28;20059;-64
2022/08/04 09:51:54;;;;;;;1.45;0.68;;;36.10;74.90;;;36.80;85.04;97296.94;4946302;28;20043;-65
2022/08/04 09:54:36;;;;;;;1.00;0.50;;;36.30;75.80;;;38.20;74.41;97293.69;4946902;28;20493;-63
2022/08/04 09:57:28;;;;;;;1.15;0.40;;;36.50;73.30;;;38.13;72.75;97284.91;4940682;29;20394;-64
2022/08/04 10:00:09;;;;;;;1.27;0.50;;;36.90;72.60;;;38.13;76.04;97290.34;4944618;28;20515;-64
2022/08/04 10:02:43;;;;;;;1.17;0.40;;;36.90;73.50;;;37.96;70.07;97286.81;4954496;28;20512;-64
2022/08/04 10:05:28;;;;;;;1.10;0.50;;;37.20;71.30;;;37.50;70.86;97294.16;4953741;28;20063;-64
2022/08/04 10:08:27;;;;;;;0.55;0.40;;;37.10;70.80;;;37.94;64.69;97288.97;4940346;28;20093;-64
2022/08/04 10:11:12;;;;;;;3.85;0.63;;;37.00;69.00;;;37.05;66.81;97298.50;4946259;28;20052;-64
2022/08/04 10:14:40;;;;;;;2.15;0.40;;;36.80;68.70;;;36.87;67.52;97288.69;4954480;28;20123;-65
2022/08/04 10:17:34;;;;;;;1.17;0.50;;;36.70;68.60;;;37.77;65.98;97286.25;4940070;29;20134;-64
2022/08/04 10:20:13;;;;;;;1.67;0.50;;;36.50;68.80;;;38.54;69.87;97284.69;4943258;28;20135;-65
2022/08/04 10:23:12;;;;;;;0.73;0.40;;;36.80;70.90;;;38.88;61.78;97280.72;4951281;28;20044;-65
2022/08/04 10:26:01;;;;;;;1.48;0.40;;;37.20;68.10;;;36.76;65.09;97292.25;4959659;28;20053;-64
2022/08/04 10:28:45;;;;;;;1.92;0.52;;;37.00;67.20;;;37.15;63.43;97281.66;4945339;28;20051;-64
2022/08/04 10:31:21;;;;;;;1.30;0.52;;;37.10;66.90;;;38.63;64.38;97280.44;4954832;28;20066;-65
2022/08/04 10:33:57;;;;;;;3.72;0.40;;;37.20;68.40;;;39.15;64.09;97276.44;4955645;28;20130;-65
2022/08/04 10:36:32;;;;;;;2.60;0.45;;;37.50;68.60;;;37.46;60.31;97281.13;4957667;28;20051;-65
2022/08/04 10:39:08;;;;;;;3.30;0.47;;;37.40;65.70;;;37.76;59.39;97274.59;4955225;28;20174;-65
2022/08/04 10:42:02;;;;;;;1.42;0.45;;;37.30;65.70;;;36.49;61.89;97287.34;4956507;28;20052;-63
2022/08/04 10:44:54;;;;;;;2.08;0.50;;;37.20;65.10;;;36.82;65.53;97275.91;4958815;28;20051;-65
2022/08/04 10:47:31;;;;;;;1.48;0.50;;;36.90;65.90;;;36.02;65.32;97268.50;4956284;28;20139;-63
2022/08/04 10:50:04;;;;;;;4.13;0.47;;;36.80;65.60;;;36.34;64.72;97276.25;4945462;28;20052;-64
2022/08/04 10:52:54;;;;;;;2.38;0.75;;;36.70;65.60;;;35.83;63.27;97275.06;4941920;28;20142;-65
2022/08/04 10:55:41;;;;;;;1.60;0.60;;;36.60;64.90;;;37.88;60.96;97263.66;4955847;28;20051;-64
2022/08/04 10:58:37;;;;;;;1.95;0.50;;;37.00;65.50;;;37.93;58.08;97260.22;4937942;29;20055;-63
2022/08/04 11:01:40;;;;;;;2.00;0.50;;;37.40;64.50;;;38.95;54.74;97260.75;4957352;28;20043;-64
2022/08/04 11:04:46;;;;;;;1.00;0.40;;;37.60;64.60;;;36.39;59.46;97263.63;4952742;28;20059;-64
2022/08/04 11:07:16;;;;;;;2.22;0.40;;;37.30;63.90;;;37.87;59.00;97249.31;4957361;28;20134;-64
2022/08/04 11:09:45;;;;;;;1.23;0.50;;;37.20;64.40;;;38.00;56.91;97256.28;4938596;28;20594;-64
2022/08/04 11:12:23;;;;;;;2.63;0.40;;;37.60;64.10;;;36.70;55.57;97266.16;4940947;28;20125;-64
2022/08/04 11:15:07;;;;;;;1.70;0.40;;;37.60;62.20;;;37.50;54.77;97277.91;4959353;28;20286;-64
2022/08/04 11:17:40;;;;;;;2.13;0.40;;;37.40;63.00;;;37.25;56.18;97260.22;4937421;28;20560;-63
2022/08/04 11:20:36;;;;;;;3.95;0.50;;;37.40;62.60;;;38.50;55.98;97254.53;4954558;28;20054;-63
2022/08/04 11:23:16;;;;;;;1.67;0.47;;;37.60;63.50;;;39.00;53.97;97245.34;4938372;28;20105;-63
2022/08/04 11:25:56;;;;;;;1.48;0.30;;;38.10;63.10;;;39.32;49.73;97245.38;4941588;28;20505;-63
2022/08/04 11:28:42;;;;;;;1.55;0.38;;;38.60;61.30;;;39.38;47.66;97249.00;4956464;28;20058;-65